KOLV

Olive Branch Airport

Olive Branch, Mississippi, USA
METAR KOLV 180935Z AUTO 00000KT 10SM CLR 10/06 A3040 RMK A01
Observed Flight Rules
Oct-18 @ 09:35 UTC (8 minutes ago) Visual Flight Rules
Visibility Clouds
10 miles
  • Clear skies
Temperatures Readings
Current 10°C / 50°F
Dewpoint 6°C / 43°F
Humidity 76%
Altimeter 30.4" Hg
Pressure 1029 hPa
Elevation 122
METAR KOLV 180935Z AUTO 00000KT 10SM CLR 10/06 A3040 RMK A01
Observed Flight Rules
Oct-18 @ 09:35 UTC
(8 minutes ago)
VFR
Clouds
  • Clear skies
Temperature Dewpoint
10°C / 50°F 6°C / 43°F
Humidity Altimeter Pressure
76% 30.4" Hg 1029 hPa